createdAt,value
2018-10-11T00:00:11.314Z,12.38
2018-10-11T00:01:11.350Z,12.64
2018-10-11T00:02:11.345Z,12.78
2018-10-11T00:03:11.312Z,12.82
2018-10-11T00:04:11.318Z,12.77
2018-10-11T00:05:11.311Z,12.74
2018-10-11T00:06:11.308Z,12.60
2018-10-11T00:07:11.339Z,12.46
2018-10-11T00:08:11.303Z,12.38
2018-10-11T00:09:11.307Z,12.21
2018-10-11T00:10:11.307Z,12.23
2018-10-11T00:11:11.307Z,12.21
2018-10-11T00:12:11.326Z,12.26
2018-10-11T00:13:11.303Z,12.23
2018-10-11T00:14:11.299Z,12.13
2018-10-11T00:15:11.301Z,12.05
2018-10-11T00:16:11.295Z,11.97
2018-10-11T00:17:11.321Z,11.80
2018-10-11T00:18:11.292Z,11.74
2018-10-11T00:19:11.292Z,11.78
2018-10-11T00:20:11.294Z,11.57
2018-10-11T00:21:11.289Z,11.46
2018-10-11T00:22:11.320Z,11.35
2018-10-11T00:23:11.282Z,11.27
2018-10-11T00:24:11.296Z,11.20
2018-10-11T00:25:11.280Z,11.06
2018-10-11T00:26:11.285Z,11.10
2018-10-11T00:27:11.348Z,10.92
2018-10-11T00:28:11.277Z,10.92
2018-10-11T00:29:11.278Z,10.81
2018-10-11T00:30:11.272Z,10.86
2018-10-11T00:31:11.274Z,10.83
2018-10-11T00:32:11.300Z,10.83
2018-10-11T00:33:11.268Z,10.86
2018-10-11T00:34:11.269Z,10.71
2018-10-11T00:35:11.266Z,10.73
2018-10-11T00:36:11.267Z,10.86
2018-10-11T00:37:11.283Z,10.96
2018-10-11T00:38:11.263Z,11.01
2018-10-11T00:39:11.259Z,11.06
2018-10-11T00:40:11.254Z,11.03
2018-10-11T00:41:11.255Z,11.27
2018-10-11T00:42:11.287Z,11.82
2018-10-11T00:43:11.266Z,11.83
2018-10-11T00:44:11.248Z,11.77
2018-10-11T00:45:11.250Z,12.37
2018-10-11T00:46:11.239Z,12.51
2018-10-11T00:47:11.272Z,12.46
2018-10-11T00:48:11.244Z,12.39
2018-10-11T00:49:11.239Z,12.08
2018-10-11T00:50:11.238Z,12.01
2018-10-11T00:51:11.232Z,11.85
2018-10-11T00:52:11.304Z,11.75
2018-10-11T00:53:11.230Z,11.46
2018-10-11T00:54:11.228Z,11.36
2018-10-11T00:55:11.223Z,11.19
2018-10-11T00:56:11.224Z,11.21
2018-10-11T00:57:11.244Z,11.28
2018-10-11T00:58:11.223Z,11.09
2018-10-11T00:59:11.220Z,10.99
2018-10-11T01:00:11.220Z,10.91
2018-10-11T01:01:11.218Z,10.83
2018-10-11T01:02:11.234Z,10.71
2018-10-11T01:03:11.217Z,10.71
2018-10-11T01:04:11.207Z,10.71
2018-10-11T01:05:11.204Z,10.66
2018-10-11T01:06:11.207Z,10.44
2018-10-11T01:07:11.231Z,10.56
2018-10-11T01:08:11.202Z,10.47
2018-10-11T01:09:11.224Z,10.44
2018-10-11T01:10:11.200Z,10.33
2018-10-11T01:11:11.194Z,10.15
2018-10-11T01:12:11.221Z,10.70
2018-10-11T01:13:11.190Z,11.03
2018-10-11T01:14:11.196Z,11.46
2018-10-11T01:15:11.187Z,11.68
2018-10-11T01:16:11.187Z,12.24
2018-10-11T01:17:11.210Z,12.74
2018-10-11T01:18:11.173Z,12.84
2018-10-11T01:19:11.174Z,13.02
2018-10-11T01:20:11.171Z,13.04
2018-10-11T01:21:11.175Z,13.00
2018-10-11T01:22:11.193Z,12.93
2018-10-11T01:23:11.165Z,12.88
2018-10-11T01:24:11.168Z,13.09
2018-10-11T01:25:11.164Z,13.04
2018-10-11T01:26:11.164Z,12.87
2018-10-11T01:27:11.195Z,13.22
2018-10-11T01:28:11.163Z,13.61
2018-10-11T01:29:11.157Z,13.76
2018-10-11T01:30:11.184Z,13.73
2018-10-11T01:31:11.145Z,13.52
2018-10-11T01:32:11.181Z,13.02
2018-10-11T01:33:11.150Z,12.88
2018-10-11T01:34:11.136Z,12.96
2018-10-11T01:35:11.146Z,12.96
2018-10-11T01:36:11.142Z,12.96
2018-10-11T01:37:11.171Z,12.87
2018-10-11T01:38:11.142Z,12.84
2018-10-11T01:39:11.136Z,13.03
2018-10-11T01:40:11.130Z,13.14
2018-10-11T01:41:11.135Z,13.21
2018-10-11T01:42:11.168Z,13.21
2018-10-11T01:43:11.136Z,13.41
2018-10-11T01:44:11.138Z,13.49
2018-10-11T01:45:11.132Z,13.59
2018-10-11T01:46:11.135Z,13.79
2018-10-11T01:47:11.172Z,13.70
2018-10-11T01:48:11.132Z,13.80
2018-10-11T01:49:11.138Z,13.77
2018-10-11T01:50:11.127Z,13.76
2018-10-11T01:51:11.125Z,13.58
2018-10-11T01:52:11.152Z,13.61
2018-10-11T01:53:11.124Z,13.40
2018-10-11T01:54:11.119Z,13.46
2018-10-11T01:55:11.123Z,13.36
2018-10-11T01:56:11.120Z,13.36
2018-10-11T01:57:11.148Z,13.17
2018-10-11T01:58:11.115Z,12.89
2018-10-11T01:59:11.109Z,13.04
2018-10-11T02:00:11.107Z,13.37
2018-10-11T02:01:11.109Z,13.49
2018-10-11T02:02:11.137Z,13.49
2018-10-11T02:03:11.108Z,13.43
2018-10-11T02:04:11.107Z,13.41
2018-10-11T02:05:11.104Z,13.30
2018-10-11T02:06:11.101Z,13.40
2018-10-11T02:07:11.129Z,13.46
2018-10-11T02:08:11.130Z,13.51
2018-10-11T02:09:11.101Z,13.49
2018-10-11T02:10:11.101Z,13.51
2018-10-11T02:11:11.092Z,13.43
2018-10-11T02:12:11.092Z,13.40
2018-10-11T02:13:11.122Z,13.54
2018-10-11T02:14:11.088Z,13.38
2018-10-11T02:15:11.096Z,13.46
2018-10-11T02:16:11.090Z,13.61
2018-10-11T02:17:11.087Z,13.54
2018-10-11T02:18:11.118Z,13.56
2018-10-11T02:19:11.086Z,13.61
2018-10-11T02:20:11.083Z,13.36
2018-10-11T02:21:11.089Z,13.40
2018-10-11T02:22:11.075Z,13.29
2018-10-11T02:23:11.106Z,13.17
2018-10-11T02:24:11.082Z,13.18
2018-10-11T02:25:11.080Z,13.24
2018-10-11T02:26:11.071Z,13.09
2018-10-11T02:27:11.099Z,13.22
2018-10-11T02:28:11.071Z,13.09
2018-10-11T02:29:11.069Z,12.97
2018-10-11T02:30:11.063Z,12.89
2018-10-11T02:31:11.067Z,12.74
2018-10-11T02:32:11.159Z,12.81
2018-10-11T02:33:11.065Z,12.77
2018-10-11T02:34:11.068Z,12.82
2018-10-11T02:35:11.059Z,12.81
2018-10-11T02:36:11.061Z,12.78
2018-10-11T02:37:11.088Z,12.66
2018-10-11T02:38:11.080Z,12.67
2018-10-11T02:39:11.054Z,12.71
2018-10-11T02:40:11.056Z,12.62
2018-10-11T02:41:11.052Z,12.56
2018-10-11T02:42:11.053Z,12.39
2018-10-11T02:43:11.072Z,12.52
2018-10-11T02:44:11.048Z,12.46
2018-10-11T02:45:11.051Z,12.54
2018-10-11T02:46:11.049Z,12.46
2018-10-11T02:47:11.041Z,12.27
2018-10-11T02:48:11.069Z,12.42
2018-10-11T02:49:11.042Z,12.38
2018-10-11T02:50:11.037Z,12.56
2018-10-11T02:51:11.038Z,12.51
2018-10-11T02:52:11.064Z,12.59
2018-10-11T02:53:11.041Z,12.64
2018-10-11T02:54:11.030Z,12.62
2018-10-11T02:55:11.030Z,12.67
2018-10-11T02:56:11.033Z,12.88
2018-10-11T02:57:11.056Z,12.81
2018-10-11T02:58:11.083Z,12.75
2018-10-11T02:59:11.027Z,12.67
2018-10-11T03:00:11.023Z,12.67
2018-10-11T03:01:11.023Z,12.87
2018-10-11T03:02:11.051Z,12.77
2018-10-11T03:03:11.015Z,12.75
2018-10-11T03:04:11.010Z,12.62
2018-10-11T03:05:11.013Z,12.52
2018-10-11T03:06:11.012Z,12.54
2018-10-11T03:07:11.030Z,12.42
2018-10-11T03:08:11.007Z,12.46
2018-10-11T03:09:11.009Z,12.41
2018-10-11T03:10:11.003Z,12.49
2018-10-11T03:11:11.003Z,12.56
2018-10-11T03:12:11.035Z,12.60
2018-10-11T03:13:11.000Z,12.67
2018-10-11T03:14:10.991Z,12.66
2018-10-11T03:15:10.996Z,12.69
2018-10-11T03:16:10.996Z,12.70
2018-10-11T03:17:11.020Z,12.63
2018-10-11T03:18:10.996Z,12.48
2018-10-11T03:19:10.992Z,12.30
2018-10-11T03:20:10.994Z,12.24
2018-10-11T03:21:10.990Z,12.21
2018-10-11T03:22:11.016Z,12.12
2018-10-11T03:23:10.984Z,12.15
2018-10-11T03:24:11.035Z,12.13
2018-10-11T03:25:10.981Z,12.01
2018-10-11T03:26:10.982Z,11.90
2018-10-11T03:27:11.010Z,11.80
2018-10-11T03:28:10.978Z,11.85
2018-10-11T03:29:10.979Z,11.82
2018-10-11T03:30:10.975Z,12.01
2018-10-11T03:31:10.975Z,11.96
2018-10-11T03:32:10.998Z,11.87
2018-10-11T03:33:10.971Z,11.99
2018-10-11T03:34:10.967Z,11.94
2018-10-11T03:35:10.963Z,11.80
2018-10-11T03:36:10.962Z,11.74
2018-10-11T03:37:10.991Z,11.54
2018-10-11T03:38:10.956Z,11.44
2018-10-11T03:39:10.955Z,11.20
2018-10-11T03:40:10.954Z,11.21
2018-10-11T03:41:10.954Z,11.02
2018-10-11T03:42:10.988Z,11.01
2018-10-11T03:43:10.957Z,10.99
2018-10-11T03:44:10.948Z,10.84
2018-10-11T03:45:10.945Z,10.78
2018-10-11T03:46:10.943Z,10.73
2018-10-11T03:47:10.968Z,10.63
2018-10-11T03:48:10.945Z,10.63
2018-10-11T03:49:10.942Z,10.58
2018-10-11T03:50:10.940Z,10.55
2018-10-11T03:51:10.936Z,10.58
2018-10-11T03:52:10.962Z,10.58
2018-10-11T03:53:10.930Z,10.62
2018-10-11T03:54:10.934Z,10.73
2018-10-11T03:55:10.928Z,10.65
2018-10-11T03:56:10.925Z,10.65
2018-10-11T03:57:10.953Z,10.68
2018-10-11T03:58:10.923Z,10.62
2018-10-11T03:59:10.913Z,10.70
2018-10-11T04:00:10.913Z,10.81
2018-10-11T04:01:10.919Z,10.81
2018-10-11T04:02:10.939Z,10.84
2018-10-11T04:03:10.910Z,11.09
2018-10-11T04:04:10.906Z,11.10
2018-10-11T04:05:10.905Z,11.09
2018-10-11T04:06:10.902Z,11.16
2018-10-11T04:07:10.921Z,11.07
2018-10-11T04:08:10.898Z,11.06
2018-10-11T04:09:10.894Z,10.81
2018-10-11T04:10:10.899Z,10.68
2018-10-11T04:11:10.892Z,10.66
2018-10-11T04:12:10.916Z,10.52
2018-10-11T04:13:10.883Z,10.40
2018-10-11T04:14:10.878Z,10.37
2018-10-11T04:15:10.884Z,10.33
2018-10-11T04:16:10.879Z,10.30
2018-10-11T04:17:10.903Z,10.44
2018-10-11T04:18:10.874Z,10.51
2018-10-11T04:19:10.873Z,10.42
2018-10-11T04:20:10.875Z,10.46
2018-10-11T04:21:10.868Z,10.44
2018-10-11T04:22:10.897Z,10.39
2018-10-11T04:23:10.869Z,10.37
2018-10-11T04:24:10.867Z,10.58
2018-10-11T04:25:10.859Z,10.63
2018-10-11T04:26:10.883Z,10.70
2018-10-11T04:27:10.860Z,10.62
2018-10-11T04:28:10.852Z,10.65
2018-10-11T04:29:10.845Z,10.63
2018-10-11T04:30:10.959Z,10.53
2018-10-11T04:31:10.867Z,10.42
2018-10-11T04:32:10.840Z,10.46
2018-10-11T04:33:10.840Z,10.73
2018-10-11T04:34:10.839Z,10.89
2018-10-11T04:35:10.834Z,10.83
2018-10-11T04:36:10.932Z,10.92
2018-10-11T04:37:10.829Z,11.01
2018-10-11T04:38:10.833Z,10.96
2018-10-11T04:39:10.822Z,10.98
2018-10-11T04:40:10.817Z,10.98
2018-10-11T04:41:10.847Z,11.07
2018-10-11T04:42:10.814Z,11.27
2018-10-11T04:43:10.871Z,11.25
2018-10-11T04:44:10.812Z,11.36
2018-10-11T04:45:10.809Z,11.47
2018-10-11T04:46:10.830Z,11.52
2018-10-11T04:47:10.805Z,11.35
2018-10-11T04:48:10.801Z,11.44
2018-10-11T04:49:10.798Z,11.43
2018-10-11T04:50:10.793Z,11.32
2018-10-11T04:51:10.821Z,11.21
2018-10-11T04:52:10.790Z,11.02
2018-10-11T04:53:10.794Z,10.83
2018-10-11T04:54:10.800Z,10.74
2018-10-11T04:55:10.785Z,10.73
2018-10-11T04:56:10.815Z,10.53
2018-10-11T04:57:10.784Z,10.51
2018-10-11T04:58:10.779Z,10.39
2018-10-11T04:59:10.776Z,10.25
2018-10-11T05:00:10.779Z,10.18
2018-10-11T05:01:10.797Z,9.97
2018-10-11T05:02:10.768Z,9.91
2018-10-11T05:03:10.768Z,9.83
2018-10-11T05:04:10.765Z,9.85
2018-10-11T05:05:10.766Z,9.94
2018-10-11T05:06:10.789Z,9.97
2018-10-11T05:07:10.757Z,9.88
2018-10-11T05:08:10.759Z,9.78
2018-10-11T05:09:10.749Z,9.71
2018-10-11T05:10:10.753Z,9.86
2018-10-11T05:11:10.771Z,9.88
2018-10-11T05:12:10.741Z,9.97
2018-10-11T05:13:10.749Z,9.94
2018-10-11T05:14:10.739Z,9.96
2018-10-11T05:15:10.736Z,9.97
2018-10-11T05:16:10.760Z,10.03
2018-10-11T05:17:10.784Z,10.04
2018-10-11T05:18:10.728Z,10.88
2018-10-11T05:19:10.724Z,10.99
2018-10-11T05:20:10.755Z,10.91
2018-10-11T05:21:10.727Z,10.95
2018-10-11T05:22:10.721Z,10.86
2018-10-11T05:23:10.718Z,10.88
2018-10-11T05:24:10.714Z,11.02
2018-10-11T05:25:10.747Z,11.13
2018-10-11T05:26:10.768Z,11.29
2018-10-11T05:27:10.710Z,11.24
2018-10-11T05:28:10.706Z,11.34
2018-10-11T05:29:10.699Z,11.25
2018-10-11T05:30:10.952Z,11.27
2018-10-11T05:31:10.724Z,11.07
2018-10-11T05:32:10.701Z,10.98
2018-10-11T05:33:10.690Z,10.81
2018-10-11T05:34:10.686Z,10.98
2018-10-11T05:35:10.711Z,10.99
2018-10-11T05:36:10.685Z,11.16
2018-10-11T05:37:10.674Z,11.02
2018-10-11T05:38:10.731Z,10.98
2018-10-11T05:39:10.675Z,10.73
2018-10-11T05:40:10.703Z,11.02
2018-10-11T05:41:10.671Z,11.21
2018-10-11T05:42:10.667Z,11.28
2018-10-11T05:43:10.664Z,11.27
2018-10-11T05:44:10.690Z,11.19
2018-10-11T05:45:10.692Z,11.13
2018-10-11T05:46:10.655Z,11.13
2018-10-11T05:47:10.665Z,11.01
2018-10-11T05:48:10.652Z,11.09
2018-10-11T05:49:10.656Z,11.16
2018-10-11T05:50:10.721Z,11.17
2018-10-11T05:51:10.641Z,11.43
2018-10-11T05:52:10.645Z,11.52
2018-10-11T05:53:10.645Z,11.72
2018-10-11T05:54:10.636Z,11.74
2018-10-11T05:55:10.661Z,11.78
2018-10-11T05:56:10.637Z,11.83
2018-10-11T05:57:10.632Z,11.89
2018-10-11T05:58:10.628Z,11.78
2018-10-11T05:59:12.295Z,11.71
2018-10-11T06:00:10.657Z,11.61
2018-10-11T06:01:10.621Z,11.46
2018-10-11T06:02:11.469Z,11.43
2018-10-11T06:03:10.614Z,11.32
2018-10-11T06:04:15.895Z,11.67
2018-10-11T06:05:12.285Z,11.70
2018-10-11T06:06:10.612Z,11.80
2018-10-11T06:07:11.426Z,11.75
2018-10-11T06:08:10.606Z,11.90
2018-10-11T06:09:10.602Z,12.09
2018-10-11T06:10:12.315Z,12.37
2018-10-11T06:11:10.602Z,12.44
2018-10-11T06:12:10.655Z,12.51
2018-10-11T06:13:10.598Z,12.46
2018-10-11T06:14:11.837Z,12.74
2018-10-11T06:15:10.594Z,12.95
2018-10-11T06:16:10.594Z,13.09
2018-10-11T06:17:13.431Z,13.47
2018-10-11T06:18:10.832Z,13.96
2018-10-11T06:20:12.582Z,14.39
2018-10-11T06:21:11.431Z,14.44
2018-10-11T06:22:11.447Z,14.80
2018-10-11T06:23:11.503Z,14.78
2018-10-11T06:24:10.837Z,15.03
2018-10-11T06:25:14.813Z,15.13
2018-10-11T06:26:10.578Z,15.12
2018-10-11T06:27:10.578Z,15.17
2018-10-11T06:28:10.577Z,14.80
2018-10-11T06:29:10.604Z,15.09
2018-10-11T06:30:10.595Z,15.28
2018-10-11T06:31:10.572Z,15.63
2018-10-11T06:32:10.572Z,15.82
2018-10-11T06:33:10.573Z,15.79
2018-10-11T06:34:10.675Z,15.67
2018-10-11T06:35:10.576Z,15.96
2018-10-11T06:36:10.652Z,15.79
2018-10-11T06:37:10.572Z,15.97
2018-10-11T06:38:10.576Z,15.96
2018-10-11T06:39:10.610Z,16.06
2018-10-11T06:40:10.580Z,15.93
2018-10-11T06:41:10.577Z,15.59
2018-10-11T06:42:10.599Z,16.20
2018-10-11T06:43:10.584Z,16.26
2018-10-11T06:44:10.668Z,16.53
2018-10-11T06:45:10.577Z,16.50
2018-10-11T06:46:10.590Z,16.00
2018-10-11T06:47:10.585Z,15.74
2018-10-11T06:48:10.585Z,15.70
2018-10-11T06:49:10.611Z,15.74
2018-10-11T06:50:10.607Z,15.63
2018-10-11T06:51:10.596Z,16.14
2018-10-11T06:52:10.592Z,16.77
2018-10-11T06:53:10.599Z,16.86
2018-10-11T06:54:10.622Z,16.90
2018-10-11T06:55:10.598Z,16.90
2018-10-11T06:56:10.595Z,16.85
2018-10-11T06:57:10.608Z,16.50
2018-10-11T06:58:10.605Z,16.70
2018-10-11T06:59:10.632Z,16.59
2018-10-11T07:00:10.607Z,16.88
2018-10-11T07:01:10.612Z,17.40
2018-10-11T07:02:10.611Z,17.85
2018-10-11T07:03:10.619Z,17.62
2018-10-11T07:04:10.648Z,17.81
2018-10-11T07:05:10.689Z,17.99
2018-10-11T07:06:10.625Z,18.03
2018-10-11T07:07:10.645Z,18.36
2018-10-11T07:08:10.633Z,18.22
2018-10-11T07:09:10.669Z,18.04
2018-10-11T07:10:10.636Z,17.66
2018-10-11T07:11:10.640Z,17.51
2018-10-11T07:12:10.646Z,17.79
2018-10-11T07:13:10.654Z,18.15
2018-10-11T07:14:10.683Z,18.17
2018-10-11T07:15:10.657Z,17.64
2018-10-11T07:16:10.661Z,17.74
2018-10-11T07:17:10.665Z,17.57
2018-10-11T07:18:10.665Z,17.50
2018-10-11T07:19:10.701Z,17.64
2018-10-11T07:20:10.684Z,17.29
2018-10-11T07:21:10.679Z,17.41
2018-10-11T07:22:10.686Z,17.41
2018-10-11T07:23:10.690Z,17.62
2018-10-11T07:24:10.724Z,17.55
2018-10-11T07:25:10.700Z,17.41
2018-10-11T07:26:10.703Z,16.92
2018-10-11T07:27:10.706Z,17.17
2018-10-11T07:28:10.715Z,16.92
2018-10-11T07:29:10.740Z,16.92
2018-10-11T07:30:10.719Z,17.59
2018-10-11T07:31:10.726Z,17.78
2018-10-11T07:32:10.728Z,18.15
2018-10-11T07:33:10.740Z,18.37
2018-10-11T07:34:10.771Z,17.82
2018-10-11T07:35:10.858Z,17.28
2018-10-11T07:36:10.751Z,17.30
2018-10-11T07:37:10.758Z,17.00
2018-10-11T07:38:10.768Z,17.20
2018-10-11T07:39:10.795Z,17.17
2018-10-11T07:40:10.776Z,17.06
2018-10-11T07:41:10.784Z,17.40
2018-10-11T07:42:10.784Z,17.38
2018-10-11T07:43:10.785Z,17.48
2018-10-11T07:44:10.828Z,17.43
2018-10-11T07:45:10.905Z,17.18
2018-10-11T07:46:10.814Z,17.36
2018-10-11T07:47:10.874Z,17.62
2018-10-11T07:48:10.822Z,17.94
2018-10-11T07:49:10.848Z,17.64
2018-10-11T07:50:10.833Z,17.79
2018-10-11T07:51:10.837Z,17.55
2018-10-11T07:52:10.841Z,17.57
2018-10-11T07:53:10.850Z,17.46
2018-10-11T07:54:10.882Z,17.53
2018-10-11T07:55:10.862Z,17.41
2018-10-11T07:56:10.894Z,17.78
2018-10-11T07:57:10.873Z,18.13
2018-10-11T07:58:10.882Z,17.97
2018-10-11T07:59:10.912Z,17.78
2018-10-11T08:00:10.895Z,17.82
2018-10-11T08:01:10.919Z,17.85
2018-10-11T08:02:10.907Z,17.84
2018-10-11T08:03:10.915Z,17.73
2018-10-11T08:04:10.947Z,17.57
2018-10-11T08:05:11.045Z,17.85
2018-10-11T08:06:10.934Z,17.88
2018-10-11T08:07:11.006Z,17.79
2018-10-11T08:08:10.947Z,17.92
2018-10-11T08:09:11.114Z,17.81
2018-10-11T08:10:10.961Z,17.74
2018-10-11T08:11:11.023Z,17.84
2018-10-11T08:12:10.982Z,17.99
2018-10-11T08:13:10.980Z,17.97
2018-10-11T08:14:11.013Z,18.07
2018-10-11T08:15:11.026Z,18.25
2018-10-11T08:16:11.106Z,18.43
2018-10-11T08:17:11.376Z,18.18
2018-10-11T08:18:11.012Z,18.28
2018-10-11T08:19:11.169Z,18.58
2018-10-11T08:20:11.136Z,18.31
2018-10-11T08:21:11.037Z,18.54
2018-10-11T08:22:11.045Z,18.74
2018-10-11T08:23:11.057Z,18.73
2018-10-11T08:24:11.119Z,18.54
2018-10-11T08:25:11.212Z,18.76
2018-10-11T08:26:11.444Z,18.82
2018-10-11T08:27:11.131Z,18.73
2018-10-11T08:28:11.090Z,18.62
2018-10-11T08:29:11.098Z,18.90
2018-10-11T08:30:11.131Z,18.94
2018-10-11T08:31:11.119Z,18.65
2018-10-11T08:32:11.204Z,18.59
2018-10-11T08:33:11.160Z,18.95
2018-10-11T08:34:11.138Z,18.92
2018-10-11T08:35:12.018Z,18.95
2018-10-11T08:36:11.157Z,19.01
2018-10-11T08:37:11.166Z,19.10
2018-10-11T08:38:11.384Z,19.54
2018-10-11T08:39:11.179Z,19.57
2018-10-11T08:40:11.218Z,19.50
2018-10-11T08:41:11.195Z,19.63
2018-10-11T08:42:11.208Z,19.40
2018-10-11T08:43:11.216Z,19.58
2018-10-11T08:44:11.272Z,19.60
2018-10-11T08:45:11.265Z,19.57
2018-10-11T08:46:11.244Z,19.65
2018-10-11T08:47:11.265Z,20.13
2018-10-11T08:48:11.260Z,19.87
2018-10-11T08:49:11.287Z,20.00
2018-10-11T08:50:11.360Z,20.41
2018-10-11T08:51:11.318Z,20.42
2018-10-11T08:52:11.301Z,20.38
2018-10-11T08:53:11.322Z,20.08
2018-10-11T08:54:11.319Z,20.35
2018-10-11T08:55:11.358Z,20.38
2018-10-11T08:56:11.343Z,20.81
2018-10-11T08:57:11.350Z,21.32
2018-10-11T08:58:11.363Z,21.60
2018-10-11T08:59:11.393Z,21.74
2018-10-11T09:00:11.402Z,21.51
2018-10-11T09:01:11.389Z,21.75
2018-10-11T09:02:11.402Z,21.56
2018-10-11T09:03:11.486Z,21.53
2018-10-11T09:04:11.475Z,21.39
2018-10-11T09:05:11.674Z,21.46
2018-10-11T09:06:11.452Z,20.99
2018-10-11T09:07:11.454Z,20.93
2018-10-11T09:08:11.478Z,21.11
2018-10-11T09:09:11.485Z,21.14
2018-10-11T09:10:11.522Z,21.64
2018-10-11T09:11:11.512Z,21.59
2018-10-11T09:12:11.515Z,21.38
2018-10-11T09:13:12.471Z,20.43
2018-10-11T09:14:11.543Z,20.59
2018-10-11T09:15:11.589Z,20.81
2018-10-11T09:16:11.558Z,20.46
2018-10-11T09:17:11.598Z,20.80
2018-10-11T09:18:13.510Z,21.30
2018-10-11T09:19:11.689Z,21.41
2018-10-11T09:20:12.237Z,21.26
2018-10-11T09:21:11.622Z,21.46
2018-10-11T09:22:11.646Z,21.45
2018-10-11T09:23:11.710Z,21.67
2018-10-11T09:24:11.661Z,21.79
2018-10-11T09:25:11.702Z,21.90
2018-10-11T09:26:11.685Z,22.22
2018-10-11T09:27:11.730Z,23.08
2018-10-11T09:28:12.486Z,23.97
2018-10-11T09:29:11.725Z,23.65
2018-10-11T09:30:11.799Z,23.64
2018-10-11T09:31:11.746Z,23.75
2018-10-11T09:32:11.766Z,23.58
2018-10-11T09:33:11.779Z,24.31
2018-10-11T09:34:12.851Z,24.42
2018-10-11T09:35:14.352Z,24.00
2018-10-11T09:36:11.815Z,23.05
2018-10-11T09:37:11.832Z,23.24
2018-10-11T09:38:11.844Z,23.80
2018-10-11T09:39:11.855Z,24.75
2018-10-11T09:40:11.900Z,25.39
2018-10-11T09:41:12.422Z,25.90
2018-10-11T09:42:13.692Z,26.11
2018-10-11T09:43:11.992Z,26.01
2018-10-11T09:44:11.929Z,26.31
2018-10-11T09:45:11.973Z,25.57
2018-10-11T09:46:13.765Z,24.52
2018-10-11T09:47:13.180Z,24.35
2018-10-11T09:48:17.356Z,24.12
2018-10-11T09:49:12.093Z,24.42
2018-10-11T09:50:12.956Z,24.82
2018-10-11T09:51:15.938Z,25.13
2018-10-11T09:52:13.735Z,25.37
2018-10-11T09:53:13.006Z,24.88
2018-10-11T09:54:12.126Z,24.22
2018-10-11T09:55:12.103Z,23.38
2018-10-11T09:56:12.146Z,23.49
2018-10-11T09:57:12.143Z,23.19
2018-10-11T09:58:12.869Z,23.61
2018-10-11T09:59:12.170Z,23.31
2018-10-11T10:00:12.213Z,23.04
2018-10-11T10:01:12.333Z,22.84
2018-10-11T10:02:13.375Z,22.97
2018-10-11T10:03:12.235Z,23.23
2018-10-11T10:04:12.252Z,23.34
2018-10-11T10:05:12.308Z,23.15
2018-10-11T10:06:12.280Z,22.86
2018-10-11T10:07:13.002Z,23.39
2018-10-11T10:08:13.150Z,24.02
2018-10-11T10:09:12.328Z,23.94
2018-10-11T10:10:12.381Z,23.39
2018-10-11T10:11:12.370Z,23.02
2018-10-11T10:12:12.381Z,22.90
2018-10-11T10:13:12.462Z,23.35
2018-10-11T10:14:12.409Z,23.50
2018-10-11T10:15:12.464Z,23.61
2018-10-11T10:16:12.442Z,23.65
2018-10-11T10:17:12.491Z,24.52
2018-10-11T10:18:12.479Z,24.49
2018-10-11T10:19:12.492Z,24.90
2018-10-11T10:20:12.533Z,24.71
2018-10-11T10:21:12.575Z,24.41
2018-10-11T10:22:12.540Z,24.38
2018-10-11T10:23:12.553Z,24.17
2018-10-11T10:24:12.571Z,23.89
2018-10-11T10:25:12.615Z,23.76
2018-10-11T10:26:12.635Z,23.22
2018-10-11T10:27:12.721Z,23.12
2018-10-11T10:28:12.635Z,22.86
2018-10-11T10:29:12.646Z,23.07
2018-10-11T10:30:12.699Z,22.90
2018-10-11T10:31:12.684Z,23.12
2018-10-11T10:32:12.734Z,23.52
2018-10-11T10:33:12.730Z,23.31
2018-10-11T10:34:12.732Z,22.99
2018-10-11T10:35:12.776Z,22.64
2018-10-11T10:36:12.768Z,22.82
2018-10-11T10:37:12.781Z,23.12
2018-10-11T10:38:12.796Z,22.89
2018-10-11T10:39:12.815Z,22.44
2018-10-11T10:40:12.861Z,22.84
2018-10-11T10:41:12.844Z,23.04
2018-10-11T10:42:12.895Z,23.26
2018-10-11T10:43:12.874Z,23.40
2018-10-11T10:44:12.895Z,23.64
2018-10-11T10:45:12.937Z,23.65
2018-10-11T10:46:12.948Z,23.61
2018-10-11T10:47:13.514Z,23.60
2018-10-11T10:48:12.950Z,23.43
2018-10-11T10:49:13.535Z,23.71
2018-10-11T10:50:12.982Z,24.07
2018-10-11T10:51:13.023Z,24.10
2018-10-11T10:52:13.017Z,23.76
2018-10-11T10:53:13.031Z,23.61
2018-10-11T10:54:13.055Z,23.49
2018-10-11T10:55:15.927Z,23.79
2018-10-11T10:56:13.153Z,23.65
2018-10-11T10:57:13.099Z,24.05
2018-10-11T10:58:13.395Z,23.97
2018-10-11T10:59:13.153Z,23.52
2018-10-11T11:00:18.886Z,23.70
2018-10-11T11:01:15.524Z,23.85
2018-10-11T11:02:13.172Z,24.01
2018-10-11T11:03:14.899Z,24.59
2018-10-11T11:04:15.888Z,24.57
2018-10-11T11:05:16.890Z,25.00
2018-10-11T11:06:13.271Z,25.10
2018-10-11T11:07:13.283Z,25.13
2018-10-11T11:08:13.267Z,24.47
2018-10-11T11:09:13.488Z,24.56
2018-10-11T11:10:13.296Z,24.75
2018-10-11T11:11:13.353Z,24.83
2018-10-11T11:12:13.345Z,24.63
2018-10-11T11:13:13.372Z,24.41
2018-10-11T11:14:13.379Z,24.77
2018-10-11T11:15:13.394Z,24.85
2018-10-11T11:16:13.435Z,24.07
2018-10-11T11:17:13.429Z,24.37
2018-10-11T11:18:13.473Z,24.26
2018-10-11T11:19:13.445Z,24.22
2018-10-11T11:20:13.484Z,24.05
2018-10-11T11:21:13.517Z,24.14
2018-10-11T11:22:13.505Z,23.89
2018-10-11T11:23:13.516Z,24.02
2018-10-11T11:24:13.530Z,24.29
2018-10-11T11:25:13.600Z,24.79
2018-10-11T11:26:13.604Z,24.85
2018-10-11T11:27:13.620Z,25.24
2018-10-11T11:28:13.606Z,25.00
2018-10-11T11:29:13.620Z,24.97
2018-10-11T11:30:13.646Z,24.79
2018-10-11T11:31:13.825Z,24.83
2018-10-11T11:32:13.698Z,24.77
2018-10-11T11:33:13.684Z,24.24
2018-10-11T11:34:13.704Z,24.37
2018-10-11T11:35:13.721Z,24.90
2018-10-11T11:36:13.771Z,25.49
2018-10-11T11:37:13.794Z,25.87
2018-10-11T11:38:13.889Z,25.28
2018-10-11T11:39:13.797Z,25.32
2018-10-11T11:40:13.813Z,25.75
2018-10-11T11:41:13.866Z,25.57
2018-10-11T11:42:13.851Z,25.68
2018-10-11T11:43:13.864Z,25.79
2018-10-11T11:44:13.873Z,25.90
2018-10-11T11:45:13.893Z,25.49
2018-10-11T11:46:13.942Z,24.94
2018-10-11T11:47:13.928Z,24.17
2018-10-11T11:48:13.966Z,24.61
2018-10-11T11:49:13.960Z,24.53
2018-10-11T11:50:13.977Z,24.63
2018-10-11T11:51:14.024Z,25.35
2018-10-11T11:52:14.055Z,25.86
2018-10-11T11:53:14.057Z,25.86
2018-10-11T11:54:14.058Z,26.15
2018-10-11T11:55:14.090Z,25.35
2018-10-11T11:56:14.123Z,25.80
2018-10-11T11:57:14.099Z,24.82
2018-10-11T11:58:14.246Z,24.80
2018-10-11T11:59:14.177Z,25.27
2018-10-11T12:00:14.164Z,25.24
2018-10-11T12:01:14.215Z,25.44
2018-10-11T12:02:14.230Z,25.47
2018-10-11T12:03:14.208Z,25.64
2018-10-11T12:04:14.233Z,25.75
2018-10-11T12:05:14.300Z,25.38
2018-10-11T12:06:14.297Z,25.61
2018-10-11T12:07:14.308Z,25.57
2018-10-11T12:08:14.331Z,25.54
2018-10-11T12:09:14.322Z,25.68
2018-10-11T12:10:14.383Z,25.28
2018-10-11T12:11:14.357Z,24.92
2018-10-11T12:12:14.376Z,25.09
2018-10-11T12:13:14.390Z,25.12
2018-10-11T12:14:14.408Z,24.68
2018-10-11T12:15:14.458Z,25.09
2018-10-11T12:16:14.434Z,25.02
2018-10-11T12:17:14.457Z,25.24
2018-10-11T12:18:14.497Z,25.28
2018-10-11T12:19:14.488Z,24.69
2018-10-11T12:20:14.527Z,24.57
2018-10-11T12:21:14.554Z,24.98
2018-10-11T12:22:14.591Z,25.02
2018-10-11T12:23:14.546Z,25.07
2018-10-11T12:24:14.578Z,24.76
2018-10-11T12:25:14.620Z,24.97
2018-10-11T12:26:14.609Z,25.10
2018-10-11T12:27:14.616Z,24.94
2018-10-11T12:28:14.645Z,24.85
2018-10-11T12:29:14.660Z,24.87
2018-10-11T12:30:14.821Z,24.83
2018-10-11T12:31:14.678Z,24.75
2018-10-11T12:32:14.719Z,24.32
2018-10-11T12:33:15.067Z,24.39
2018-10-11T12:34:14.735Z,24.52
2018-10-11T12:35:14.782Z,24.52
2018-10-11T12:36:14.831Z,24.85
2018-10-11T12:37:14.778Z,24.82
2018-10-11T12:38:14.791Z,24.95
2018-10-11T12:39:14.819Z,25.06
2018-10-11T12:40:14.864Z,25.28
2018-10-11T12:41:14.875Z,25.09
2018-10-11T12:42:14.867Z,24.90
2018-10-11T12:43:14.868Z,24.52
2018-10-11T12:44:14.892Z,24.68
2018-10-11T12:45:15.006Z,24.83
2018-10-11T12:46:14.928Z,25.31
2018-10-11T12:47:14.943Z,25.38
2018-10-11T12:48:14.948Z,25.10
2018-10-11T12:49:14.982Z,25.09
2018-10-11T12:50:15.016Z,25.13
2018-10-11T12:51:14.997Z,24.87
2018-10-11T12:52:15.069Z,24.50
2018-10-11T12:53:15.067Z,24.44
2018-10-11T12:54:15.061Z,24.57